Time;durP1;ratioP1;P1;durP2;ratioP2;P2;SDS_P1;SDS_P2;PMS_P1;PMS_P2;Temp;Humidity;BMP_temperature;BMP_pressure;BME280_temperature;BME280_humidity;BME280_pressure;Samples;Min_cycle;Max_cycle;Signal;HPM_P1;HPM_P2
2021/06/30 00:02:25;;;;;;;3.00;2.60;;;15.20;99.90;;;;;;5045068;28;20542;-69
2021/06/30 00:04:53;;;;;;;2.80;1.70;;;15.20;99.90;;;;;;5044177;28;20452;-69
2021/06/30 00:07:20;;;;;;;3.63;1.63;;;15.20;99.90;;;;;;5044805;28;20537;-69
2021/06/30 00:09:47;;;;;;;2.20;2.00;;;15.20;99.90;;;;;;5044013;28;20467;-68
2021/06/30 00:12:15;;;;;;;1.80;1.70;;;15.10;99.90;;;;;;5044219;28;20499;-68
2021/06/30 00:14:42;;;;;;;2.03;1.80;;;15.10;99.90;;;;;;5044401;28;20483;-68
2021/06/30 00:17:10;;;;;;;1.90;1.70;;;15.10;99.90;;;;;;5044050;28;20505;-68
2021/06/30 00:19:37;;;;;;;10.03;2.03;;;15.20;99.90;;;;;;5043618;28;20459;-69
2021/06/30 00:22:04;;;;;;;2.50;1.83;;;15.20;99.90;;;;;;5043598;28;20470;-69
2021/06/30 00:24:31;;;;;;;4.13;1.83;;;15.20;99.90;;;;;;5044560;28;21075;-67
2021/06/30 00:26:58;;;;;;;2.23;2.03;;;15.10;99.90;;;;;;5043710;28;20490;-68
2021/06/30 00:29:26;;;;;;;2.20;1.77;;;15.10;99.90;;;;;;5043610;28;20464;-68
2021/06/30 00:31:53;;;;;;;4.60;2.00;;;15.10;99.90;;;;;;5043187;28;20455;-68
2021/06/30 00:34:19;;;;;;;3.70;1.73;;;15.10;99.90;;;;;;5042679;28;20499;-68
2021/06/30 00:36:47;;;;;;;4.77;1.87;;;15.10;99.90;;;;;;5044537;28;20488;-68
2021/06/30 00:39:15;;;;;;;1.97;1.87;;;15.10;99.90;;;;;;5043410;28;20463;-67
2021/06/30 00:41:42;;;;;;;1.63;1.50;;;15.10;99.90;;;;;;5043875;28;21055;-67
2021/06/30 00:44:13;;;;;;;3.80;1.73;;;15.10;99.90;;;;;;5044181;28;20487;-68
2021/06/30 00:46:42;;;;;;;2.00;1.60;;;15.10;99.90;;;;;;5044244;28;20499;-68
2021/06/30 00:49:11;;;;;;;1.93;1.80;;;15.10;99.90;;;;;;5043297;28;20463;-68
2021/06/30 00:51:38;;;;;;;2.97;1.57;;;15.10;99.90;;;;;;5043238;28;20968;-69
2021/06/30 00:54:05;;;;;;;1.57;1.47;;;15.10;99.90;;;;;;5043825;28;20537;-68
2021/06/30 00:56:32;;;;;;;2.87;1.73;;;15.10;99.90;;;;;;5043707;28;20467;-68
2021/06/30 00:59:02;;;;;;;2.53;1.40;;;15.10;99.90;;;;;;5043542;28;20821;-68
2021/06/30 01:01:29;;;;;;;2.70;1.67;;;15.00;99.90;;;;;;5043082;28;20463;-68
2021/06/30 01:03:57;;;;;;;4.23;1.87;;;15.00;99.90;;;;;;5043157;28;20479;-68
2021/06/30 01:06:24;;;;;;;1.53;1.33;;;15.00;99.90;;;;;;5043793;28;20487;-68
2021/06/30 01:08:51;;;;;;;2.80;1.70;;;15.00;99.90;;;;;;5043181;28;20863;-68
2021/06/30 01:11:18;;;;;;;2.33;1.57;;;15.00;99.90;;;;;;5042872;28;20478;-68
2021/06/30 01:13:45;;;;;;;3.73;1.57;;;15.00;99.90;;;;;;5043291;28;20479;-67
2021/06/30 01:16:16;;;;;;;2.67;2.00;;;15.00;99.90;;;;;;5043444;28;20464;-67
2021/06/30 01:18:45;;;;;;;2.07;1.47;;;15.00;99.90;;;;;;5043725;28;20549;-68
2021/06/30 01:21:16;;;;;;;1.93;1.30;;;15.00;99.90;;;;;;5043335;28;20471;-68
2021/06/30 01:23:45;;;;;;;3.10;1.80;;;14.90;99.90;;;;;;5043986;28;20573;-68
2021/06/30 01:26:12;;;;;;;1.80;1.60;;;14.80;99.90;;;;;;5043594;28;20482;-67
2021/06/30 01:28:39;;;;;;;3.33;1.53;;;14.70;99.90;;;;;;5047460;28;20456;-67
2021/06/30 01:31:08;;;;;;;1.90;1.53;;;14.60;99.90;;;;;;5043426;28;20460;-67
2021/06/30 01:33:36;;;;;;;2.07;1.40;;;14.60;99.90;;;;;;5047763;28;20479;-67
2021/06/30 01:36:03;;;;;;;3.50;1.73;;;14.60;99.90;;;;;;5160120;22;20489;-77
2021/06/30 01:38:31;;;;;;;3.33;1.40;;;14.60;99.90;;;;;;5066423;28;20967;-76
2021/06/30 01:41:00;;;;;;;1.87;1.50;;;14.50;99.90;;;;;;5087409;28;20461;-77
2021/06/30 01:43:27;;;;;;;1.33;1.23;;;14.50;99.90;;;;;;5089340;28;20485;-75
2021/06/30 01:45:54;;;;;;;3.90;1.40;;;14.50;99.90;;;;;;5089241;28;20454;-76
2021/06/30 01:48:21;;;;;;;2.20;1.60;;;14.50;99.90;;;;;;5089589;28;20971;-75
2021/06/30 01:50:49;;;;;;;2.83;1.83;;;14.50;99.90;;;;;;5088413;28;20454;-76
2021/06/30 01:53:18;;;;;;;2.13;1.30;;;14.40;99.90;;;;;;5089008;28;20484;-76
2021/06/30 01:55:44;;;;;;;1.27;1.17;;;14.40;99.90;;;;;;5088849;28;20542;-77
2021/06/30 01:58:15;;;;;;;1.20;1.10;;;14.30;99.90;;;;;;5089848;28;20469;-77
2021/06/30 02:00:42;;;;;;;1.93;1.40;;;14.30;99.90;;;;;;5064669;28;20886;-76
2021/06/30 02:03:09;;;;;;;2.10;1.20;;;14.20;99.90;;;;;;5067891;28;20484;-77
2021/06/30 02:05:35;;;;;;;1.10;1.00;;;14.20;99.90;;;;;;5077206;28;20484;-75
2021/06/30 02:08:02;;;;;;;1.43;1.10;;;14.20;99.90;;;;;;5072631;28;20482;-76
2021/06/30 02:10:30;;;;;;;1.63;1.20;;;14.20;99.90;;;;;;5072050;28;20460;-77
2021/06/30 02:12:57;;;;;;;6.60;1.50;;;14.20;99.90;;;;;;5072889;28;20485;-76
2021/06/30 02:15:29;;;;;;;2.50;1.10;;;14.20;99.90;;;;;;5072989;28;20485;-77
2021/06/30 02:17:57;;;;;;;1.67;1.20;;;14.10;99.90;;;;;;5073100;28;20842;-76
2021/06/30 02:20:25;;;;;;;2.17;1.13;;;14.10;99.90;;;;;;5072069;28;20465;-77
2021/06/30 02:22:53;;;;;;;1.43;1.33;;;14.00;99.90;;;;;;5072218;28;20486;-77
2021/06/30 02:25:22;;;;;;;1.40;1.00;;;13.90;99.90;;;;;;5072253;28;20469;-76
2021/06/30 02:27:49;;;;;;;1.30;1.10;;;13.90;99.90;;;;;;5071674;28;20486;-76
2021/06/30 02:30:19;;;;;;;1.20;1.00;;;13.90;99.90;;;;;;5070952;28;20458;-74
2021/06/30 02:32:47;;;;;;;1.53;0.83;;;13.90;99.90;;;;;;5072173;28;20498;-76
2021/06/30 02:35:16;;;;;;;1.00;0.90;;;13.80;99.90;;;;;;5072205;28;20489;-74
2021/06/30 02:37:44;;;;;;;1.03;0.90;;;13.80;99.90;;;;;;5072241;28;20465;-77
2021/06/30 02:40:13;;;;;;;1.10;1.00;;;13.70;99.90;;;;;;5073488;28;20555;-77
2021/06/30 02:42:40;;;;;;;1.20;1.00;;;13.60;99.90;;;;;;5074805;28;20458;-77
2021/06/30 02:45:11;;;;;;;1.57;1.10;;;13.60;99.90;;;;;;5075490;28;20469;-75
2021/06/30 02:47:39;;;;;;;1.10;1.00;;;13.60;99.90;;;;;;5073542;28;20482;-77
2021/06/30 02:50:09;;;;;;;2.00;1.17;;;13.70;99.90;;;;;;5073340;28;20840;-75
2021/06/30 02:52:38;;;;;;;1.20;1.00;;;13.70;99.90;;;;;;5073116;28;20836;-77
2021/06/30 02:55:06;;;;;;;0.90;0.80;;;13.60;99.90;;;;;;5073188;28;20207;-77
2021/06/30 02:57:32;;;;;;;1.30;1.07;;;13.60;99.90;;;;;;5075851;28;20458;-76
2021/06/30 02:59:59;;;;;;;5.55;1.10;;;13.60;99.90;;;;;;5072628;28;20458;-77
2021/06/30 03:02:26;;;;;;;2.13;0.90;;;13.60;99.90;;;;;;5072036;28;20208;-76
2021/06/30 03:04:53;;;;;;;1.40;1.00;;;13.50;99.90;;;;;;5073127;28;20459;-77
2021/06/30 03:07:21;;;;;;;1.10;0.97;;;13.50;99.90;;;;;;5072562;28;20482;-77
2021/06/30 03:09:48;;;;;;;2.33;0.87;;;13.50;99.90;;;;;;5071782;28;20459;-75
2021/06/30 03:12:15;;;;;;;1.70;0.80;;;13.50;99.90;;;;;;5072302;28;20458;-77
2021/06/30 03:14:41;;;;;;;1.27;1.07;;;13.50;99.90;;;;;;5071729;28;20487;-77
2021/06/30 03:17:08;;;;;;;1.27;1.02;;;13.50;99.90;;;;;;5071879;28;20466;-77
2021/06/30 03:19:35;;;;;;;1.10;1.00;;;13.50;99.90;;;;;;5072681;28;20569;-77
2021/06/30 03:22:01;;;;;;;1.90;1.10;;;13.40;99.90;;;;;;5073524;28;20458;-76
2021/06/30 03:24:29;;;;;;;1.13;0.80;;;13.40;99.90;;;;;;5074600;28;20490;-77
2021/06/30 03:26:56;;;;;;;1.20;0.98;;;13.40;99.90;;;;;;5071422;28;20220;-76
2021/06/30 03:29:23;;;;;;;1.13;0.97;;;13.40;99.90;;;;;;5071433;28;20207;-76
2021/06/30 03:31:50;;;;;;;1.33;1.20;;;13.40;99.90;;;;;;5070805;28;20466;-76
2021/06/30 03:34:16;;;;;;;1.57;1.00;;;13.30;99.90;;;;;;5071091;28;20482;-74
2021/06/30 03:36:43;;;;;;;1.60;1.08;;;13.40;99.90;;;;;;5070848;28;20469;-76
2021/06/30 03:39:10;;;;;;;1.63;0.90;;;13.40;99.90;;;;;;5070301;28;20201;-74
2021/06/30 03:41:38;;;;;;;2.25;0.90;;;13.40;99.90;;;;;;5070645;28;20558;-74
2021/06/30 03:44:05;;;;;;;1.15;1.05;;;13.40;99.90;;;;;;5070785;28;20253;-77
2021/06/30 03:46:32;;;;;;;0.90;0.80;;;13.40;99.90;;;;;;5070856;28;20207;-75
2021/06/30 03:48:59;;;;;;;1.57;1.00;;;13.40;99.90;;;;;;5070510;28;20204;-75
2021/06/30 03:51:26;;;;;;;1.07;0.83;;;13.40;99.90;;;;;;5070090;28;20459;-72
2021/06/30 03:53:53;;;;;;;1.50;1.10;;;13.40;99.90;;;;;;5070399;28;20494;-77
2021/06/30 03:56:24;;;;;;;1.20;1.10;;;13.40;99.90;;;;;;5070793;28;20218;-76
2021/06/30 03:58:53;;;;;;;1.70;1.20;;;13.40;99.90;;;;;;5069412;28;20541;-75
2021/06/30 04:01:21;;;;;;;2.05;1.00;;;13.40;99.90;;;;;;5070083;28;20200;-76
2021/06/30 04:03:52;;;;;;;2.13;1.10;;;13.40;99.90;;;;;;5070207;28;20224;-76
2021/06/30 04:06:19;;;;;;;1.50;0.98;;;13.30;99.90;;;;;;5070417;28;20477;-77
2021/06/30 04:08:46;;;;;;;1.20;1.00;;;13.30;99.90;;;;;;5070273;28;20616;-76
2021/06/30 04:11:12;;;;;;;2.03;0.90;;;13.40;99.90;;;;;;5069551;28;20458;-76
2021/06/30 04:13:39;;;;;;;1.00;0.90;;;13.40;99.90;;;;;;5070205;28;20485;-76
2021/06/30 04:16:07;;;;;;;1.10;1.00;;;13.50;99.90;;;;;;5069975;28;20832;-77
2021/06/30 04:18:34;;;;;;;1.85;1.10;;;13.50;99.90;;;;;;5070123;28;20200;-76
2021/06/30 04:21:01;;;;;;;1.10;0.90;;;13.50;99.90;;;;;;5069239;28;20200;-76
2021/06/30 04:23:27;;;;;;;3.83;1.30;;;13.40;99.90;;;;;;5069937;28;20485;-76
2021/06/30 04:25:54;;;;;;;1.20;1.10;;;13.40;99.90;;;;;;5069728;28;20473;-77
2021/06/30 04:28:21;;;;;;;1.53;1.40;;;13.40;99.90;;;;;;5069240;28;20497;-76
2021/06/30 04:30:49;;;;;;;1.30;1.10;;;13.50;99.90;;;;;;5069401;28;20458;-76
2021/06/30 04:33:17;;;;;;;2.80;1.00;;;13.40;99.90;;;;;;5069484;28;20224;-76
2021/06/30 04:35:43;;;;;;;1.20;1.10;;;13.50;99.90;;;;;;5069676;28;20511;-77
2021/06/30 04:38:10;;;;;;;2.83;1.10;;;13.40;99.90;;;;;;5069308;28;20485;-77
2021/06/30 04:40:37;;;;;;;1.00;0.90;;;13.40;99.90;;;;;;5068983;28;20515;-76
2021/06/30 04:43:04;;;;;;;1.05;0.95;;;13.40;99.90;;;;;;5069509;28;20482;-77
2021/06/30 04:45:30;;;;;;;1.60;1.17;;;13.40;99.90;;;;;;5069476;28;20584;-76
2021/06/30 04:47:57;;;;;;;1.30;1.20;;;13.30;99.90;;;;;;5068950;28;20478;-76
2021/06/30 04:50:25;;;;;;;1.80;1.20;;;13.30;99.90;;;;;;5068677;28;20596;-76
2021/06/30 04:52:52;;;;;;;1.52;1.10;;;13.30;99.90;;;;;;5069008;28;20483;-76
2021/06/30 04:55:19;;;;;;;1.77;1.03;;;13.40;99.90;;;;;;5069420;28;20208;-76
2021/06/30 04:57:45;;;;;;;1.20;1.03;;;13.50;99.90;;;;;;5069575;28;20465;-76
2021/06/30 05:00:13;;;;;;;1.37;1.13;;;13.60;99.90;;;;;;5068484;28;20462;-76
2021/06/30 05:02:39;;;;;;;1.43;1.20;;;13.60;99.90;;;;;;5069207;28;20845;-77
2021/06/30 05:05:07;;;;;;;1.92;1.40;;;13.50;99.90;;;;;;5069030;28;20458;-77
2021/06/30 05:07:35;;;;;;;2.10;1.00;;;13.50;99.90;;;;;;5069097;28;20227;-76
2021/06/30 05:10:02;;;;;;;2.37;1.00;;;13.60;99.90;;;;;;5068040;28;20972;-76
2021/06/30 05:12:28;;;;;;;1.63;1.00;;;13.50;99.90;;;;;;5068710;28;20461;-76
2021/06/30 05:14:55;;;;;;;1.77;1.20;;;13.50;99.90;;;;;;5069082;28;20459;-76
2021/06/30 05:17:22;;;;;;;3.10;1.10;;;13.60;99.90;;;;;;5068911;28;20465;-76
2021/06/30 05:19:49;;;;;;;2.10;1.00;;;13.60;99.90;;;;;;5068699;28;20462;-75
2021/06/30 05:22:16;;;;;;;1.27;1.17;;;13.70;99.90;;;;;;5068697;28;20459;-75
2021/06/30 05:24:44;;;;;;;1.40;1.20;;;13.70;99.90;;;;;;5068710;28;20478;-76
2021/06/30 05:27:11;;;;;;;1.57;1.20;;;13.70;99.90;;;;;;5068628;28;20968;-76
2021/06/30 05:29:37;;;;;;;1.13;1.03;;;13.70;99.90;;;;;;5068366;28;20462;-77
2021/06/30 05:32:05;;;;;;;3.67;1.10;;;13.70;99.90;;;;;;5068788;28;20462;-77
2021/06/30 05:34:32;;;;;;;2.63;1.23;;;13.70;99.90;;;;;;5068329;28;21037;-76
2021/06/30 05:36:58;;;;;;;2.90;1.17;;;13.80;99.90;;;;;;5068357;28;20954;-76
2021/06/30 05:39:25;;;;;;;2.23;1.40;;;13.80;99.90;;;;;;5071224;28;20469;-76
2021/06/30 05:41:53;;;;;;;1.15;1.05;;;13.80;99.90;;;;;;5072643;28;20466;-77
2021/06/30 05:44:20;;;;;;;2.27;1.13;;;13.70;99.90;;;;;;5072572;28;20243;-77
2021/06/30 05:46:47;;;;;;;1.97;1.17;;;13.70;99.90;;;;;;5073054;28;20462;-77
2021/06/30 05:49:14;;;;;;;1.33;1.23;;;13.80;99.90;;;;;;5071723;28;20492;-76
2021/06/30 05:51:42;;;;;;;1.93;1.07;;;13.80;99.90;;;;;;5072638;28;20455;-77
2021/06/30 05:54:10;;;;;;;1.83;1.03;;;13.80;99.90;;;;;;5072269;28;20527;-77
2021/06/30 05:56:37;;;;;;;4.03;1.40;;;13.80;99.90;;;;;;5083107;28;20609;-77
2021/06/30 05:59:06;;;;;;;1.20;1.10;;;13.90;99.90;;;;;;5092645;28;20457;-76
2021/06/30 06:01:33;;;;;;;1.43;1.30;;;14.00;99.90;;;;;;5092163;28;20480;-76
2021/06/30 06:04:00;;;;;;;1.93;1.10;;;14.10;99.90;;;;;;5080263;28;20829;-76
2021/06/30 06:06:28;;;;;;;1.40;0.97;;;14.10;99.90;;;;;;5074875;28;20454;-76
2021/06/30 06:08:54;;;;;;;1.10;1.00;;;14.30;99.90;;;;;;5071983;28;20513;-77
2021/06/30 06:11:21;;;;;;;2.00;1.17;;;14.30;99.90;;;;;;5071952;28;20462;-76
2021/06/30 06:13:48;;;;;;;1.30;1.20;;;14.40;99.90;;;;;;5071946;28;20479;-77
2021/06/30 06:16:20;;;;;;;1.17;1.07;;;14.50;99.90;;;;;;5072562;28;20569;-77
2021/06/30 06:18:47;;;;;;;1.00;0.80;;;14.60;99.90;;;;;;5080849;28;20462;-76
2021/06/30 06:21:13;;;;;;;2.60;1.23;;;14.70;99.90;;;;;;5074959;28;20470;-76
2021/06/30 06:23:40;;;;;;;5.33;1.10;;;14.70;99.90;;;;;;5074505;28;20481;-76
2021/06/30 06:26:08;;;;;;;1.30;0.97;;;14.80;99.90;;;;;;5091079;28;20461;-76
2021/06/30 06:28:35;;;;;;;1.10;1.00;;;14.90;99.90;;;;;;5083253;28;20478;-76
2021/06/30 06:31:03;;;;;;;1.10;1.00;;;15.00;99.90;;;;;;5077392;28;20548;-76
2021/06/30 06:33:31;;;;;;;0.97;0.87;;;15.20;99.90;;;;;;5082091;28;20478;-76
2021/06/30 06:35:58;;;;;;;3.43;0.90;;;15.10;99.90;;;;;;5068558;28;20466;-75
2021/06/30 06:38:25;;;;;;;1.53;1.13;;;14.90;99.90;;;;;;5069201;28;20458;-75
2021/06/30 06:40:52;;;;;;;1.00;0.90;;;14.90;99.90;;;;;;5068623;28;20468;-76
2021/06/30 06:43:19;;;;;;;1.30;1.20;;;14.90;99.90;;;;;;5069467;28;20500;-76
2021/06/30 06:45:46;;;;;;;2.17;0.97;;;14.90;99.90;;;;;;5071765;28;20462;-75
2021/06/30 06:48:13;;;;;;;4.50;1.77;;;14.90;99.90;;;;;;5071483;28;20829;-75
2021/06/30 06:50:41;;;;;;;2.07;1.10;;;14.90;99.90;;;;;;5070154;28;20467;-75
2021/06/30 06:53:08;;;;;;;2.27;1.20;;;15.00;99.90;;;;;;5071296;28;20951;-75
2021/06/30 06:55:35;;;;;;;1.83;1.20;;;15.00;99.90;;;;;;5071453;28;20462;-76
2021/06/30 06:58:01;;;;;;;1.30;1.10;;;15.00;99.90;;;;;;5071264;28;20476;-76
2021/06/30 07:00:28;;;;;;;1.00;0.90;;;15.10;99.90;;;;;;5070714;28;20455;-76
2021/06/30 07:02:55;;;;;;;1.07;0.97;;;15.10;99.90;;;;;;5070988;28;20482;-76
2021/06/30 07:05:22;;;;;;;1.23;0.87;;;15.20;99.90;;;;;;5071222;28;20493;-75
2021/06/30 07:07:50;;;;;;;1.90;1.23;;;15.20;99.90;;;;;;5070992;28;20469;-76
2021/06/30 07:10:17;;;;;;;2.23;1.00;;;15.30;99.90;;;;;;5070657;28;20473;-76
2021/06/30 07:12:44;;;;;;;1.10;0.90;;;15.30;99.90;;;;;;5070820;28;20478;-75
2021/06/30 07:15:11;;;;;;;1.00;0.90;;;15.40;99.90;;;;;;5068332;28;20458;-76
2021/06/30 07:17:47;;;;;;;1.10;0.87;;;15.40;99.90;;;;;;5071624;28;20462;-75
2021/06/30 07:20:22;;;;;;;1.37;0.80;;;15.60;99.90;;;;;;5072398;28;20527;-75
2021/06/30 07:23:06;;;;;;;1.10;1.00;;;15.70;99.90;;;;;;5072136;28;20490;-75
2021/06/30 07:25:47;;;;;;;1.00;0.90;;;15.70;99.90;;;;;;5072775;28;20481;-75
2021/06/30 07:28:15;;;;;;;2.30;1.00;;;15.70;99.90;;;;;;5072091;28;20478;-74
2021/06/30 07:30:52;;;;;;;1.30;0.90;;;15.80;99.90;;;;;;5071663;28;20459;-74
2021/06/30 07:33:20;;;;;;;0.90;0.80;;;15.80;99.90;;;;;;5071691;28;20535;-74
2021/06/30 07:35:48;;;;;;;0.90;0.80;;;15.90;99.90;;;;;;5071855;28;20466;-75
2021/06/30 07:38:21;;;;;;;2.00;0.90;;;15.90;99.90;;;;;;5071903;28;20459;-73
2021/06/30 07:40:57;;;;;;;0.97;0.80;;;16.00;99.90;;;;;;5074145;28;20539;-73
2021/06/30 07:43:27;;;;;;;0.90;0.70;;;16.00;99.90;;;;;;5073897;28;20565;-73
2021/06/30 07:45:55;;;;;;;0.87;0.80;;;16.00;99.90;;;;;;5074378;28;20470;-73
2021/06/30 07:48:23;;;;;;;0.80;0.73;;;16.10;99.90;;;;;;5075365;28;20874;-73
2021/06/30 07:50:52;;;;;;;1.23;0.90;;;16.10;99.90;;;;;;5075778;28;20467;-74
2021/06/30 07:53:26;;;;;;;0.90;0.80;;;16.20;99.90;;;;;;5078578;28;20570;-73
2021/06/30 07:55:54;;;;;;;1.20;0.80;;;16.20;99.90;;;;;;5079445;28;20472;-73
2021/06/30 07:58:26;;;;;;;0.90;0.80;;;16.20;99.90;;;;;;5076632;28;20485;-73
2021/06/30 08:01:00;;;;;;;0.90;0.80;;;16.20;99.90;;;;;;5073143;28;20810;-73
2021/06/30 08:03:42;;;;;;;0.90;0.80;;;16.20;99.90;;;;;;5069461;28;20602;-74
2021/06/30 08:06:12;;;;;;;2.10;0.80;;;16.10;99.90;;;;;;5069807;28;20458;-74
2021/06/30 08:08:43;;;;;;;0.87;0.73;;;16.10;99.90;;;;;;5069750;28;20481;-73
2021/06/30 08:11:19;;;;;;;0.93;0.80;;;16.00;99.90;;;;;;5069314;28;20541;-74
2021/06/30 08:13:49;;;;;;;0.80;0.70;;;16.00;99.90;;;;;;5069764;28;20517;-73
2021/06/30 08:16:25;;;;;;;1.00;0.73;;;16.00;99.90;;;;;;5070884;28;20828;-74
2021/06/30 08:18:56;;;;;;;1.20;0.80;;;16.00;99.90;;;;;;5070156;28;20553;-73
2021/06/30 08:21:39;;;;;;;0.93;0.80;;;16.00;99.90;;;;;;5070801;28;20469;-72
2021/06/30 08:24:19;;;;;;;0.90;0.80;;;16.00;99.90;;;;;;5081244;28;20525;-73
2021/06/30 08:26:56;;;;;;;0.90;0.80;;;16.00;99.90;;;;;;5083759;28;20482;-73
2021/06/30 08:29:33;;;;;;;1.73;0.80;;;16.00;99.90;;;;;;5083242;28;20481;-72
2021/06/30 08:32:09;;;;;;;1.03;0.80;;;16.10;99.90;;;;;;5079149;28;20465;-74
2021/06/30 08:34:50;;;;;;;1.20;1.10;;;16.20;99.90;;;;;;5076999;28;20484;-73
2021/06/30 08:37:20;;;;;;;0.90;0.80;;;16.40;99.90;;;;;;5068575;28;20478;-73
2021/06/30 08:39:54;;;;;;;1.57;0.80;;;16.60;99.90;;;;;;5077644;28;21457;-73
2021/06/30 08:42:32;;;;;;;1.67;0.87;;;16.60;99.90;;;;;;5086836;28;20455;-73
2021/06/30 08:45:08;;;;;;;1.10;0.80;;;16.70;99.90;;;;;;5083352;28;20462;-72
2021/06/30 08:47:43;;;;;;;1.17;0.87;;;16.70;99.90;;;;;;5075294;28;20458;-72
2021/06/30 08:50:17;;;;;;;1.10;0.80;;;16.80;99.90;;;;;;5073570;28;20481;-73
2021/06/30 08:53:03;;;;;;;1.53;1.00;;;16.80;99.90;;;;;;5078827;28;20481;-72
2021/06/30 08:55:41;;;;;;;1.93;0.80;;;16.80;99.90;;;;;;5069986;28;20515;-73
2021/06/30 08:58:11;;;;;;;1.63;1.00;;;16.90;99.90;;;;;;5069869;28;20569;-71
2021/06/30 09:03:31;;;;;;;1.57;0.80;;;16.90;99.90;;;;;;5079531;28;20465;-73
2021/06/30 09:06:14;;;;;;;0.87;0.80;;;16.80;99.90;;;;;;5074196;28;20921;-73
2021/06/30 09:09:14;;;;;;;1.00;0.90;;;16.80;99.90;;;;;;5078837;28;20551;-73
2021/06/30 09:11:54;;;;;;;1.03;0.80;;;16.60;99.90;;;;;;5055113;28;20453;-74
2021/06/30 09:14:25;;;;;;;1.00;0.83;;;16.50;99.90;;;;;;5058316;28;21007;-73
2021/06/30 09:17:01;;;;;;;1.93;1.00;;;16.50;99.90;;;;;;5050426;28;20491;-75
2021/06/30 09:20:11;;;;;;;1.00;0.90;;;16.40;99.90;;;;;;5058258;28;20466;-73
2021/06/30 09:23:06;;;;;;;1.30;0.87;;;16.40;99.90;;;;;;5079431;28;20462;-74
2021/06/30 09:25:46;;;;;;;1.00;0.90;;;16.50;99.90;;;;;;5076819;28;21013;-74
2021/06/30 09:28:25;;;;;;;1.20;1.00;;;16.60;99.90;;;;;;5081972;28;20857;-75
2021/06/30 09:31:03;;;;;;;1.20;1.10;;;16.60;99.90;;;;;;5072855;28;20538;-74
2021/06/30 09:33:47;;;;;;;2.97;0.90;;;16.70;99.90;;;;;;5075301;28;20501;-74
2021/06/30 09:36:14;;;;;;;0.87;0.77;;;16.70;99.90;;;;;;5075597;28;20814;-74
2021/06/30 09:38:43;;;;;;;1.93;0.80;;;16.80;99.90;;;;;;5067291;28;20450;-73
2021/06/30 09:41:16;;;;;;;3.17;0.90;;;16.90;99.90;;;;;;5066232;28;20459;-73
2021/06/30 09:44:15;;;;;;;2.67;1.10;;;16.90;99.90;;;;;;5077644;28;20470;-73
2021/06/30 09:46:44;;;;;;;1.00;0.90;;;16.80;99.90;;;;;;5072634;28;20462;-72
2021/06/30 09:49:38;;;;;;;2.90;1.07;;;16.70;99.90;;;;;;5080484;28;21015;-72
2021/06/30 09:52:21;;;;;;;1.40;1.00;;;16.70;99.90;;;;;;5075288;28;20844;-72
2021/06/30 09:54:53;;;;;;;2.33;0.90;;;16.60;99.90;;;;;;5076903;28;20484;-73
2021/06/30 09:57:22;;;;;;;1.10;1.00;;;16.70;99.90;;;;;;5076268;28;20956;-71
2021/06/30 09:59:58;;;;;;;1.10;0.80;;;16.80;99.90;;;;;;5073199;28;20811;-74
2021/06/30 10:02:39;;;;;;;1.90;0.93;;;17.00;99.90;;;;;;5082659;28;20959;-74
2021/06/30 10:05:14;;;;;;;1.10;0.80;;;17.10;99.90;;;;;;5070707;28;20457;-72
2021/06/30 10:07:46;;;;;;;0.80;0.80;;;17.40;99.90;;;;;;5082459;28;20960;-74
2021/06/30 10:10:13;;;;;;;0.97;0.87;;;17.60;99.90;;;;;;5067441;28;20481;-74
2021/06/30 10:12:39;;;;;;;1.20;0.80;;;17.80;99.90;;;;;;5066278;28;20459;-75
2021/06/30 10:15:09;;;;;;;1.03;0.93;;;18.00;99.90;;;;;;5084002;28;20457;-74
2021/06/30 10:17:38;;;;;;;2.07;1.00;;;18.20;99.90;;;;;;5081735;28;20692;-74
2021/06/30 10:20:06;;;;;;;1.80;1.10;;;18.30;99.90;;;;;;5070048;28;20961;-74
2021/06/30 10:22:33;;;;;;;1.23;0.97;;;18.40;99.90;;;;;;5066638;28;20837;-75
2021/06/30 10:25:00;;;;;;;2.40;1.03;;;18.40;99.90;;;;;;5088114;28;20469;-74
2021/06/30 10:27:28;;;;;;;0.97;0.87;;;18.40;99.90;;;;;;5083208;28;20811;-74
2021/06/30 10:29:57;;;;;;;1.00;0.90;;;18.40;99.90;;;;;;5087583;28;20488;-74
2021/06/30 10:32:26;;;;;;;3.37;1.00;;;18.40;99.90;;;;;;5071951;28;20459;-75
2021/06/30 10:34:56;;;;;;;1.83;0.97;;;18.30;99.90;;;;;;5071957;28;20466;-74
2021/06/30 10:37:26;;;;;;;1.00;0.90;;;18.20;99.90;;;;;;5090261;28;20468;-74
2021/06/30 10:39:54;;;;;;;2.03;1.00;;;18.30;99.90;;;;;;5081439;28;20446;-74
2021/06/30 10:42:29;;;;;;;1.10;0.90;;;18.30;99.90;;;;;;5083787;28;20466;-74
2021/06/30 10:44:59;;;;;;;1.20;0.90;;;18.30;99.90;;;;;;5075359;28;20492;-75
2021/06/30 10:47:48;;;;;;;1.30;1.20;;;18.20;99.90;;;;;;5077696;28;20469;-74
2021/06/30 10:50:23;;;;;;;2.80;1.27;;;18.20;99.90;;;;;;5077704;28;20512;-74
2021/06/30 10:52:53;;;;;;;0.80;0.80;;;18.20;99.90;;;;;;5069089;28;20865;-74
2021/06/30 10:55:52;;;;;;;1.20;1.00;;;18.20;99.90;;;;;;5087055;28;20457;-74
2021/06/30 10:58:20;;;;;;;1.30;0.80;;;18.20;99.90;;;;;;5073073;28;20469;-74
2021/06/30 11:00:49;;;;;;;2.50;0.80;;;18.20;99.90;;;;;;5069128;28;20454;-75
2021/06/30 11:03:29;;;;;;;1.43;0.97;;;18.20;99.90;;;;;;5088568;28;20477;-74
2021/06/30 11:06:04;;;;;;;1.57;0.87;;;18.10;99.90;;;;;;5083826;28;20465;-74
2021/06/30 11:08:46;;;;;;;1.00;0.90;;;18.00;99.90;;;;;;5077989;28;20458;-75
2021/06/30 11:11:15;;;;;;;1.10;1.00;;;17.90;99.90;;;;;;5077456;28;20454;-74
2021/06/30 11:14:23;;;;;;;0.93;0.80;;;17.80;99.90;;;;;;5078043;28;20485;-74
2021/06/30 11:17:02;;;;;;;1.27;0.90;;;17.70;99.90;;;;;;5075873;28;20461;-73
2021/06/30 11:19:45;;;;;;;1.60;1.00;;;17.60;99.90;;;;;;5074389;28;20686;-74
2021/06/30 11:22:32;;;;;;;1.30;0.80;;;17.70;99.90;;;;;;5077623;28;20542;-74
2021/06/30 11:25:01;;;;;;;1.00;0.90;;;18.00;99.90;;;;;;5104891;22;20490;-70
2021/06/30 11:27:47;;;;;;;1.00;0.80;;;18.40;99.90;;;;;;4999325;28;20466;-69
2021/06/30 11:30:34;;;;;;;1.00;0.80;;;18.80;99.90;;;;;;4997440;28;20490;-70
2021/06/30 11:33:00;;;;;;;1.40;1.00;;;19.00;99.90;;;;;;5001061;28;20485;-70
2021/06/30 11:35:34;;;;;;;1.30;1.00;;;18.90;99.90;;;;;;5003152;28;20470;-69
2021/06/30 11:38:14;;;;;;;1.30;1.10;;;18.70;99.90;;;;;;4997471;28;20528;-70
2021/06/30 11:40:49;;;;;;;1.20;1.10;;;18.50;99.90;;;;;;5001922;28;20458;-70
2021/06/30 11:43:18;;;;;;;3.53;1.20;;;18.20;99.90;;;;;;4999434;28;20539;-70
2021/06/30 11:45:45;;;;;;;1.33;1.23;;;17.90;99.90;;;;;;5008219;28;20458;-68
2021/06/30 11:48:14;;;;;;;2.70;1.20;;;17.60;99.90;;;;;;4995592;28;20462;-69
2021/06/30 11:50:48;;;;;;;1.00;0.80;;;17.40;99.90;;;;;;5001548;28;20492;-69
2021/06/30 11:53:15;;;;;;;2.20;1.20;;;17.10;99.90;;;;;;5001408;28;20488;-69
2021/06/30 11:55:44;;;;;;;3.23;1.30;;;16.90;99.90;;;;;;4999676;28;20976;-69
2021/06/30 11:58:11;;;;;;;1.40;1.00;;;16.80;99.90;;;;;;5000925;28;20457;-69
2021/06/30 12:00:42;;;;;;;1.10;1.00;;;16.80;99.90;;;;;;5001181;28;20467;-68
2021/06/30 12:03:09;;;;;;;1.20;1.03;;;16.80;99.90;;;;;;5000656;28;20989;-69
2021/06/30 12:05:38;;;;;;;2.27;1.40;;;16.90;99.90;;;;;;5000039;28;20469;-68
2021/06/30 12:08:08;;;;;;;1.00;0.87;;;17.00;99.90;;;;;;5000070;28;20469;-69
2021/06/30 12:10:38;;;;;;;1.60;1.30;;;17.10;99.90;;;;;;4999889;28;20485;-69
2021/06/30 12:13:10;;;;;;;1.50;1.10;;;17.20;99.90;;;;;;4999575;28;20924;-69
2021/06/30 12:15:42;;;;;;;2.87;1.27;;;17.30;99.90;;;;;;5000248;28;20497;-69
2021/06/30 12:18:09;;;;;;;2.43;1.23;;;17.40;99.90;;;;;;5000178;28;21113;-69
2021/06/30 12:20:35;;;;;;;1.20;0.90;;;17.60;99.90;;;;;;5003741;28;20461;-69
2021/06/30 12:23:03;;;;;;;2.37;1.07;;;17.80;99.90;;;;;;4992594;28;20481;-69
2021/06/30 12:25:31;;;;;;;1.30;1.20;;;17.90;99.90;;;;;;4998044;28;21014;-69
2021/06/30 12:28:03;;;;;;;1.47;1.10;;;18.00;99.90;;;;;;5003549;28;20968;-69
2021/06/30 12:30:32;;;;;;;2.30;1.17;;;18.10;99.90;;;;;;4996694;28;20491;-69
2021/06/30 12:33:00;;;;;;;1.37;1.20;;;18.00;99.90;;;;;;5001278;28;20842;-69
2021/06/30 12:35:29;;;;;;;1.23;1.10;;;18.00;99.90;;;;;;5006294;28;20464;-69
2021/06/30 12:37:59;;;;;;;1.20;1.10;;;17.90;99.90;;;;;;5000668;28;20464;-68
2021/06/30 12:40:27;;;;;;;1.40;1.10;;;17.70;99.90;;;;;;5001145;28;20450;-69
2021/06/30 12:42:57;;;;;;;1.53;1.10;;;17.60;99.90;;;;;;4998455;28;21040;-69
2021/06/30 12:45:36;;;;;;;1.73;1.00;;;17.50;99.90;;;;;;4998754;28;20462;-69
2021/06/30 12:48:05;;;;;;;1.10;1.00;;;17.70;99.90;;;;;;4997966;28;20454;-69
2021/06/30 12:50:35;;;;;;;1.63;1.03;;;17.80;99.90;;;;;;4998881;28;20493;-69
2021/06/30 12:53:05;;;;;;;1.23;1.13;;;17.90;99.90;;;;;;5000415;28;20481;-69
2021/06/30 12:55:48;;;;;;;1.37;0.87;;;18.00;99.90;;;;;;5002428;28;20464;-69
2021/06/30 12:58:16;;;;;;;2.37;1.10;;;18.10;99.90;;;;;;5009285;28;20964;-70
2021/06/30 13:00:55;;;;;;;1.03;0.93;;;18.20;99.90;;;;;;5008713;28;20468;-70
2021/06/30 13:03:22;;;;;;;2.50;1.10;;;18.40;99.90;;;;;;5009284;28;20760;-70
2021/06/30 13:05:50;;;;;;;1.23;1.00;;;18.40;99.90;;;;;;5009541;28;20841;-69
2021/06/30 13:08:31;;;;;;;1.00;0.90;;;18.50;99.90;;;;;;5009268;28;20461;-70